Observations for BOURNEMOUTH AIRPORT, United Kingdom (EGHH)

EGHH 260450Z 32003KT 0100 FG VV/// 12/12 Q1018  
EGHH 252150Z 27003KT 6000 MIFG NSC 15/14 Q1019  
EGHH 252120Z 33001KT 7000 MIFG NSC 16/15 Q1019  
EGHH 252050Z 03002KT 7000 NSC 16/15 Q1019   
EGHH 252020Z 13002KT 8000 NSC 16/14 Q1019   
EGHH 251950Z 13004KT 9000 NSC 18/16 Q1019   
EGHH 251920Z 15003KT 9000 NSC 18/16 Q1018   
EGHH 251850Z 13005KT CAVOK 19/15 Q1018  
EGHH 251820Z 14006KT CAVOK 20/15 Q1018  
EGHH 251750Z 16006KT CAVOK 22/14 Q1018  
EGHH 251720Z 16005KT CAVOK 23/14 Q1018  
EGHH 251650Z 17006KT CAVOK 23/13 Q1018  
EGHH 251620Z 19007KT CAVOK 24/14 Q1018  
EGHH 251550Z 18006KT CAVOK 25/14 Q1018  
EGHH 251520Z 20009KT 160V230 CAVOK 25/15 Q1017  
EGHH 251450Z 17007KT CAVOK 25/15 Q1018  
EGHH 251420Z 16008KT 110V180 CAVOK 25/16 Q1017  
EGHH 251350Z 17009KT CAVOK 25/16 Q1017  
EGHH 251320Z 16010KT CAVOK 25/17 Q1017  
EGHH 251250Z 15010KT CAVOK 26/18 Q1017  
EGHH 251220Z 14008KT 110V200 CAVOK 27/18 Q1017  
EGHH 251150Z 16005KT 100V180 CAVOK 27/18 Q1017  
EGHH 251120Z 17006KT 120V200 CAVOK 26/17 Q1017  
EGHH 251050Z 14004KT 090V200 CAVOK 26/17 Q1017  
EGHH 251020Z 15004KT 040V190 CAVOK 25/17 Q1017  
EGHH 250950Z 15004KT 050V150 CAVOK 25/18 Q1017  
EGHH 250920Z 14004KT 080V180 CAVOK 24/18 Q1017  
EGHH 250850Z 16005KT 150V220 CAVOK 23/18 Q1017  
EGHH 250820Z 15006KT CAVOK 22/18 Q1017  
EGHH 250750Z 17007KT CAVOK 22/17 Q1017  
EGHH 250720Z 15004KT CAVOK 22/18 Q1016  
EGHH 250650Z 10003KT CAVOK 20/16 Q1016  
EGHH 250620Z 07002KT CAVOK 18/16 Q1016  
EGHH 250550Z 05002KT CAVOK 16/14 Q1016  
EGHH 250520Z 31003KT CAVOK 15/13 Q1016  
EGHH 250450Z 29002KT CAVOK 15/13 Q1015